Time;durP1;ratioP1;P1;durP2;ratioP2;P2;SDS_P1;SDS_P2;PMS_P1;PMS_P2;Temp;Humidity;BMP_temperature;BMP_pressure;BME280_temperature;BME280_humidity;BME280_pressure;Samples;Min_cycle;Max_cycle;Signal;HPM_P1;HPM_P2
2021/08/17 00:01:56;;;;;;;16.52;2.35;;;;;;;12.74;100.00;100563.69;5027768;28;20033;-74
2021/08/17 00:04:22;;;;;;;14.57;2.28;;;;;;;12.66;100.00;100551.34;5024269;28;20418;-74
2021/08/17 00:06:47;;;;;;;23.13;2.72;;;;;;;12.65;100.00;100550.50;5025596;28;20456;-74
2021/08/17 00:09:14;;;;;;;17.20;3.28;;;;;;;12.59;100.00;100545.91;5009313;28;20029;-76
2021/08/17 00:11:40;;;;;;;17.30;2.47;;;;;;;12.59;100.00;100560.88;5034047;28;20115;-76
2021/08/17 00:14:05;;;;;;;16.73;2.50;;;;;;;12.51;100.00;100561.69;5008313;28;20166;-75
2021/08/17 00:16:31;;;;;;;13.73;2.40;;;;;;;12.49;100.00;100552.31;5026232;28;20045;-74
2021/08/17 00:18:56;;;;;;;17.90;2.60;;;;;;;12.52;100.00;100552.81;5023486;28;20033;-74
2021/08/17 00:21:24;;;;;;;19.30;2.38;;;;;;;12.50;100.00;100560.03;5008631;28;20025;-74
2021/08/17 00:23:55;;;;;;;17.60;2.47;;;;;;;12.50;100.00;100556.59;5020560;28;20122;-75
2021/08/17 00:26:20;;;;;;;21.00;2.60;;;;;;;12.50;100.00;100559.22;5025662;28;20033;-75
2021/08/17 00:28:46;;;;;;;23.10;2.35;;;;;;;12.48;100.00;100559.38;5025086;28;20371;-74
2021/08/17 00:31:11;;;;;;;17.60;2.75;;;;;;;12.49;100.00;100554.94;5018226;28;20120;-76
2021/08/17 00:33:37;;;;;;;16.95;2.60;;;;;;;12.48;100.00;100559.38;5022254;28;20033;-74
2021/08/17 00:36:04;;;;;;;16.42;2.92;;;;;;;12.53;100.00;100572.06;5033781;28;20053;-74
2021/08/17 00:38:30;;;;;;;12.27;2.55;;;;;;;12.42;100.00;100571.38;4993139;28;20033;-73
2021/08/17 00:40:55;;;;;;;24.27;3.45;;;;;;;12.40;100.00;100568.09;4987869;28;20380;-76
2021/08/17 00:43:22;;;;;;;14.75;2.25;;;;;;;12.43;100.00;100577.44;4992397;28;20035;-75
2021/08/17 00:45:47;;;;;;;21.10;2.47;;;;;;;12.47;100.00;100576.16;5012378;28;20041;-75
2021/08/17 00:48:13;;;;;;;17.08;2.63;;;;;;;12.45;100.00;100580.75;5009537;28;20487;-77
2021/08/17 00:50:41;;;;;;;14.73;2.63;;;;;;;12.47;100.00;100576.16;5007096;28;20033;-77
2021/08/17 00:53:06;;;;;;;14.95;2.72;;;;;;;12.41;100.00;100584.69;5022385;28;20453;-73
2021/08/17 00:55:32;;;;;;;20.23;3.00;;;;;;;12.37;100.00;100584.19;5041321;28;20627;-74
2021/08/17 00:57:59;;;;;;;14.40;2.72;;;;;;;12.29;100.00;100581.56;5021689;28;20565;-75
2021/08/17 01:00:26;;;;;;;19.05;2.80;;;;;;;12.30;100.00;100577.09;5009228;28;20037;-76
2021/08/17 01:02:51;;;;;;;17.95;2.35;;;;;;;12.25;100.00;100578.41;5012673;28;20033;-76
2021/08/17 01:05:20;;;;;;;12.32;2.03;;;;;;;12.26;100.00;100584.50;4996018;28;20025;-73
2021/08/17 01:07:45;;;;;;;13.02;2.65;;;;;;;12.30;100.00;100577.94;5012409;28;20037;-77
2021/08/17 01:10:11;;;;;;;10.70;2.75;;;;;;;12.35;100.00;100590.59;5024583;28;20041;-76
2021/08/17 01:12:38;;;;;;;19.65;2.33;;;;;;;12.42;100.00;100597.69;5010467;28;20039;-74
2021/08/17 01:15:09;;;;;;;21.05;3.47;;;;;;;12.39;100.00;100590.09;4995547;28;20179;-76
2021/08/17 01:17:34;;;;;;;15.30;2.53;;;;;;;12.42;100.00;100596.88;5010710;28;20073;-77
2021/08/17 01:20:00;;;;;;;9.32;2.22;;;;;;;12.38;100.00;100596.38;5011622;28;20038;-73
2021/08/17 01:22:26;;;;;;;18.02;2.58;;;;;;;12.39;100.00;100594.53;5004202;28;20033;-75
2021/08/17 01:24:52;;;;;;;18.02;2.55;;;;;;;12.34;100.00;100596.81;5039299;28;20056;-74
2021/08/17 01:27:18;;;;;;;14.07;2.50;;;;;;;12.45;100.00;100601.78;4999134;28;20056;-77
2021/08/17 01:29:43;;;;;;;17.17;2.40;;;;;;;12.53;100.00;100601.00;4994620;28;20809;-75
2021/08/17 01:32:15;;;;;;;8.60;1.85;;;;;;;12.51;100.00;100610.84;5027591;28;20025;-73
2021/08/17 01:34:41;;;;;;;14.70;2.28;;;;;;;12.50;100.00;100617.09;4997894;28;20025;-74
2021/08/17 01:37:07;;;;;;;13.65;2.55;;;;;;;12.52;100.00;100613.31;5038408;28;20037;-74
2021/08/17 01:39:33;;;;;;;14.93;2.53;;;;;;;12.58;100.00;100601.31;5039903;28;20030;-75
2021/08/17 01:41:59;;;;;;;15.57;1.80;;;;;;;12.56;100.00;100613.81;5042605;28;20596;-75
2021/08/17 01:44:24;;;;;;;12.63;2.30;;;;;;;12.52;100.00;100613.31;5010016;28;20052;-75
2021/08/17 01:46:50;;;;;;;9.88;2.22;;;;;;;12.55;100.00;100623.53;5035490;28;20604;-75
2021/08/17 01:49:17;;;;;;;11.63;2.42;;;;;;;12.54;100.00;100626.31;5007886;28;20048;-75
2021/08/17 01:51:46;;;;;;;15.35;2.28;;;;;;;12.55;100.00;100631.41;5014829;28;20066;-75
2021/08/17 01:54:19;;;;;;;21.55;2.60;;;;;;;12.71;100.00;100632.41;5006301;28;20040;-74
2021/08/17 01:56:45;;;;;;;15.70;2.33;;;;;;;12.68;100.00;100643.25;5017537;28;20585;-75
2021/08/17 01:59:13;;;;;;;12.63;2.10;;;;;;;12.67;100.00;100645.06;5003746;28;20767;-75
2021/08/17 02:01:41;;;;;;;15.02;2.50;;;;;;;12.64;100.00;100640.16;5033505;28;20057;-75
2021/08/17 02:04:06;;;;;;;11.57;2.50;;;;;;;12.61;100.00;100649.19;5032500;28;20112;-76
2021/08/17 02:06:32;;;;;;;15.55;2.80;;;;;;;12.57;100.00;100649.66;5029505;28;20108;-76
2021/08/17 02:08:58;;;;;;;12.93;2.40;;;;;;;12.60;100.00;100662.50;5027865;28;20036;-73
2021/08/17 02:11:23;;;;;;;14.07;2.25;;;;;;;12.53;100.00;100664.13;5003004;28;20551;-75
2021/08/17 02:13:49;;;;;;;14.82;2.38;;;;;;;12.50;100.00;100669.72;5030665;28;20041;-74
2021/08/17 02:16:14;;;;;;;14.02;2.45;;;;;;;12.43;100.00;100665.09;5034428;28;20507;-74
2021/08/17 02:18:40;;;;;;;14.82;2.28;;;;;;;12.43;100.00;100672.16;5025046;28;20029;-76
2021/08/17 02:21:05;;;;;;;13.68;2.20;;;;;;;12.35;100.00;100678.22;5009813;28;20025;-73
2021/08/17 02:23:31;;;;;;;14.52;2.53;;;;;;;12.33;100.00;100684.63;5009514;28;20484;-75
2021/08/17 02:25:57;;;;;;;12.93;2.08;;;;;;;12.27;100.00;100684.28;5011561;28;20041;-74
2021/08/17 02:28:23;;;;;;;12.38;2.67;;;;;;;12.30;100.00;100679.66;5045097;28;20438;-77
2021/08/17 02:30:50;;;;;;;14.20;2.67;;;;;;;12.35;100.00;100674.75;5014249;28;20033;-76
2021/08/17 02:33:16;;;;;;;11.25;2.13;;;;;;;12.42;100.00;100689.75;5030403;28;20088;-77
2021/08/17 02:35:42;;;;;;;15.73;2.65;;;;;;;12.36;100.00;100686.94;5009991;28;20041;-75
2021/08/17 02:38:09;;;;;;;14.95;3.10;;;;;;;12.31;100.00;100689.22;5003775;28;20045;-74
2021/08/17 02:40:35;;;;;;;17.35;2.50;;;;;;;12.26;100.00;100690.53;5041761;28;20086;-75
2021/08/17 02:43:02;;;;;;;12.18;2.67;;;;;;;12.30;100.00;100698.06;5042751;28;20033;-76
2021/08/17 02:45:28;;;;;;;13.75;2.40;;;;;;;12.29;100.00;100691.19;5010705;28;20026;-76
2021/08/17 02:48:01;;;;;;;10.20;2.58;;;;;;;12.20;100.00;100682.44;4995210;28;20037;-75
2021/08/17 02:50:27;;;;;;;12.40;2.40;;;;;;;12.16;100.00;100683.75;5028270;28;20037;-74
2021/08/17 02:52:54;;;;;;;17.15;2.50;;;;;;;12.15;100.00;100682.06;4995063;28;20040;-75
2021/08/17 02:55:20;;;;;;;10.38;2.38;;;;;;;12.09;100.00;100678.28;5032963;28;20037;-75
2021/08/17 02:57:51;;;;;;;15.18;2.60;;;;;;;12.14;100.00;100683.06;5027766;28;20041;-74
2021/08/17 03:00:17;;;;;;;11.73;2.60;;;;;;;12.11;100.00;100689.47;4996927;28;20044;-75
2021/08/17 03:02:42;;;;;;;15.57;3.03;;;;;;;12.15;100.00;100679.44;5011178;28;20033;-75
2021/08/17 03:05:09;;;;;;;13.82;2.90;;;;;;;12.11;100.00;100684.22;4994289;28;20029;-75
2021/08/17 03:07:34;;;;;;;11.45;2.88;;;;;;;12.22;100.00;100675.22;5043621;28;20036;-76
2021/08/17 03:10:00;;;;;;;20.27;2.97;;;;;;;12.15;100.00;100687.34;5034449;28;20037;-75
2021/08/17 03:12:26;;;;;;;14.45;2.33;;;;;;;12.12;100.00;100685.03;5017295;28;20033;-75
2021/08/17 03:14:51;;;;;;;21.83;3.33;;;;;;;12.08;100.00;100689.78;5010202;28;20556;-76
2021/08/17 03:17:17;;;;;;;13.45;3.42;;;;;;;12.16;100.00;100692.44;4999403;28;20048;-74
2021/08/17 03:19:42;;;;;;;14.00;2.67;;;;;;;12.18;100.00;100697.56;5025400;28;20067;-73
2021/08/17 03:22:09;;;;;;;13.82;3.40;;;;;;;12.10;100.00;100697.53;5026101;28;20104;-76
2021/08/17 03:24:34;;;;;;;15.25;2.72;;;;;;;12.03;100.00;100689.44;5025744;28;20502;-75
2021/08/17 03:27:00;;;;;;;13.95;2.80;;;;;;;12.03;100.00;100700.75;5010551;28;20037;-76
2021/08/17 03:29:26;;;;;;;17.70;3.17;;;;;;;12.12;100.00;100704.25;5010202;28;20395;-76
2021/08/17 03:31:51;;;;;;;14.52;3.17;;;;;;;12.19;100.00;100715.81;5036509;28;20045;-74
2021/08/17 03:34:17;;;;;;;14.77;3.03;;;;;;;12.27;100.00;100723.72;5014943;28;20036;-76
2021/08/17 03:36:42;;;;;;;12.48;2.53;;;;;;;12.33;100.00;100714.38;5029745;28;20053;-76
2021/08/17 03:39:08;;;;;;;8.85;2.63;;;;;;;12.40;100.00;100719.84;5023121;28;20037;-74
2021/08/17 03:41:34;;;;;;;15.57;2.80;;;;;;;12.39;100.00;100726.06;5010167;28;20719;-74
2021/08/17 03:43:59;;;;;;;18.05;3.17;;;;;;;12.36;100.00;100721.13;5042625;28;20033;-74
2021/08/17 03:46:26;;;;;;;15.70;3.53;;;;;;;12.37;100.00;100725.41;4991570;28;20528;-75
2021/08/17 03:48:52;;;;;;;19.00;3.13;;;;;;;12.36;100.00;100723.78;4998663;28;20033;-75
2021/08/17 03:51:17;;;;;;;21.25;3.42;;;;;;;12.37;100.00;100728.03;5000381;28;20036;-74
2021/08/17 03:53:43;;;;;;;12.95;2.70;;;;;;;12.39;100.00;100728.69;5031453;28;20124;-76
2021/08/17 03:56:08;;;;;;;13.70;2.85;;;;;;;12.38;100.00;100727.88;5037036;28;20454;-74
2021/08/17 03:58:34;;;;;;;19.33;3.28;;;;;;;12.41;100.00;100732.84;5012392;28;20095;-75
2021/08/17 04:00:59;;;;;;;12.98;3.25;;;;;;;12.41;100.00;100724.09;5010671;28;20034;-74
2021/08/17 04:03:25;;;;;;;19.55;3.72;;;;;;;12.45;100.00;100728.03;5006685;28;20033;-74
2021/08/17 04:05:51;;;;;;;18.08;3.50;;;;;;;12.47;100.00;100726.13;5009024;28;20090;-76
2021/08/17 04:08:16;;;;;;;18.58;3.42;;;;;;;12.52;100.00;100739.59;5011887;28;20041;-74
2021/08/17 04:10:46;;;;;;;15.88;3.53;;;;;;;12.51;100.00;100734.47;5013856;28;20045;-74
2021/08/17 04:13:11;;;;;;;17.30;3.45;;;;;;;12.57;100.00;100729.41;5014499;28;20691;-74
2021/08/17 04:15:37;;;;;;;18.50;3.60;;;;;;;12.60;100.00;100744.06;5036434;28;20041;-75
2021/08/17 04:18:03;;;;;;;19.42;3.10;;;;;;;12.59;100.00;100737.97;5027693;28;20041;-74
2021/08/17 04:20:30;;;;;;;16.25;3.35;;;;;;;12.55;100.00;100738.47;5009415;28;20113;-74
2021/08/17 04:22:56;;;;;;;15.50;2.90;;;;;;;12.59;100.00;100735.34;5014498;28;20094;-74
2021/08/17 04:25:21;;;;;;;17.85;3.00;;;;;;;12.52;100.00;100738.78;5029782;28;20029;-74
2021/08/17 04:27:48;;;;;;;17.23;3.17;;;;;;;12.44;100.00;100735.13;5017013;28;20045;-75
2021/08/17 04:30:14;;;;;;;15.77;3.15;;;;;;;12.45;100.00;100749.94;5027438;28;20029;-77
2021/08/17 04:32:40;;;;;;;12.05;3.00;;;;;;;12.52;100.00;100746.66;5015023;28;20056;-75
2021/08/17 04:35:06;;;;;;;12.82;2.92;;;;;;;12.57;100.00;100758.38;5043553;28;20467;-75
2021/08/17 04:37:32;;;;;;;14.65;3.45;;;;;;;12.60;100.00;100752.78;5033125;28;20036;-74
2021/08/17 04:39:58;;;;;;;15.88;2.90;;;;;;;12.58;100.00;100759.19;5033973;28;20034;-75
2021/08/17 04:42:23;;;;;;;17.30;3.05;;;;;;;12.56;100.00;100753.25;5003690;28;20182;-75
2021/08/17 04:44:49;;;;;;;16.05;2.70;;;;;;;12.54;100.00;100761.31;5042952;28;20494;-74
2021/08/17 04:47:15;;;;;;;16.23;2.90;;;;;;;12.50;100.00;100761.78;5036699;28;20040;-74
2021/08/17 04:49:40;;;;;;;19.77;3.80;;;;;;;12.51;100.00;100768.69;5031446;28;20033;-76
2021/08/17 04:52:06;;;;;;;18.42;3.53;;;;;;;12.54;100.00;100769.19;5035452;28;20040;-75
2021/08/17 04:54:32;;;;;;;15.82;2.78;;;;;;;12.53;100.00;100762.31;5034323;28;20520;-76
2021/08/17 04:56:57;;;;;;;23.83;3.55;;;;;;;12.57;100.00;100765.44;5044544;28;20041;-76
2021/08/17 04:59:26;;;;;;;19.70;3.92;;;;;;;12.61;100.00;100777.28;5041799;28;20052;-76
2021/08/17 05:01:51;;;;;;;16.50;3.60;;;;;;;12.65;100.00;100786.50;5019169;28;20855;-75
2021/08/17 05:04:18;;;;;;;15.82;3.70;;;;;;;12.67;100.00;100779.28;5031552;28;20028;-76
2021/08/17 05:06:43;;;;;;;16.83;3.85;;;;;;;12.79;100.00;100791.19;5030981;28;20132;-74
2021/08/17 05:09:09;;;;;;;20.02;4.15;;;;;;;12.79;100.00;100791.19;5030443;28;20904;-76
2021/08/17 05:11:34;;;;;;;20.50;4.57;;;;;;;12.89;100.00;100788.41;5030000;28;20056;-76
2021/08/17 05:14:00;;;;;;;24.58;4.40;;;;;;;12.95;100.00;100793.00;5003516;28;20455;-75
2021/08/17 05:16:25;;;;;;;17.38;4.22;;;;;;;13.00;100.00;100797.81;5044357;28;20041;-76
2021/08/17 05:18:51;;;;;;;23.60;4.25;;;;;;;12.99;100.00;100796.16;5029913;28;20052;-76
2021/08/17 05:21:17;;;;;;;22.17;4.57;;;;;;;13.02;100.00;100798.47;5028141;28;20033;-76
2021/08/17 05:23:42;;;;;;;17.73;3.88;;;;;;;13.00;100.00;100797.81;5033542;28;20042;-75
2021/08/17 05:26:08;;;;;;;26.95;4.97;;;;;;;13.04;100.00;100813.13;5044099;28;20183;-74
2021/08/17 05:28:34;;;;;;;17.65;4.82;;;;;;;13.11;100.00;100797.50;5020442;28;20033;-75
2021/08/17 05:30:59;;;;;;;19.80;4.65;;;;;;;13.11;100.00;100807.19;5011811;28;20049;-76
2021/08/17 05:33:25;;;;;;;19.75;4.60;;;;;;;13.15;100.00;100793.56;5003684;28;20037;-74
2021/08/17 05:35:50;;;;;;;22.88;4.78;;;;;;;13.19;100.00;100808.06;5011436;28;20033;-75
2021/08/17 05:38:16;;;;;;;29.27;5.15;;;;;;;13.20;100.00;100808.88;5011482;28;20041;-75
2021/08/17 05:40:41;;;;;;;19.08;4.25;;;;;;;13.22;100.00;100809.53;5036215;28;20414;-75
2021/08/17 05:43:07;;;;;;;18.85;4.47;;;;;;;13.23;100.00;100804.09;5013457;28;20025;-74
2021/08/17 05:45:33;;;;;;;33.55;6.75;;;;;;;13.31;100.00;100807.78;4997891;28;20034;-76
2021/08/17 05:47:59;;;;;;;12.73;4.35;;;;;;;13.31;100.00;100810.41;5027089;28;20032;-74
2021/08/17 05:50:25;;;;;;;25.85;4.55;;;;;;;13.23;100.00;100801.47;5032124;28;20040;-76
2021/08/17 05:52:50;;;;;;;25.63;4.70;;;;;;;13.28;100.00;100803.63;5037779;28;20042;-75
2021/08/17 05:55:16;;;;;;;26.80;5.13;;;;;;;13.33;100.00;100821.59;5035500;28;20040;-75
2021/08/17 05:57:52;;;;;;;24.98;4.63;;;;;;;13.34;100.00;100824.06;4994372;28;20053;-75
2021/08/17 06:00:18;;;;;;;28.75;4.90;;;;;;;13.37;100.00;100820.28;5016331;28;20042;-74
2021/08/17 06:02:43;;;;;;;27.40;6.28;;;;;;;13.55;100.00;100822.78;5027121;28;20045;-76
2021/08/17 06:05:09;;;;;;;26.17;4.82;;;;;;;13.55;100.00;100826.22;5011878;28;20052;-74
2021/08/17 06:07:36;;;;;;;22.17;4.70;;;;;;;13.64;100.00;100829.72;5035792;28;20040;-76
2021/08/17 06:10:03;;;;;;;19.83;4.78;;;;;;;13.70;100.00;100829.03;5045926;28;20029;-74
2021/08/17 06:12:28;;;;;;;23.98;4.57;;;;;;;13.67;100.00;100839.91;5037798;28;20041;-76
2021/08/17 06:14:54;;;;;;;30.42;4.68;;;;;;;13.71;100.00;100830.72;5039437;28;20744;-74
2021/08/17 06:17:19;;;;;;;21.58;4.90;;;;;;;13.89;100.00;100832.34;4999593;28;20049;-74
2021/08/17 06:19:45;;;;;;;23.65;5.70;;;;;;;14.12;100.00;100830.66;5026843;28;20033;-74
2021/08/17 06:22:11;;;;;;;14.75;4.75;;;;;;;14.27;100.00;100841.34;5010479;28;20059;-75
2021/08/17 06:24:36;;;;;;;18.40;5.03;;;;;;;14.19;100.00;100818.44;5042576;28;20474;-75
2021/08/17 06:27:02;;;;;;;18.15;4.55;;;;;;;14.10;100.00;100837.91;5021355;28;20044;-77
2021/08/17 06:29:28;;;;;;;23.00;4.57;;;;;;;14.01;100.00;100834.47;5023068;28;20041;-79
2021/08/17 06:31:53;;;;;;;18.95;4.38;;;;;;;14.07;100.00;100837.41;5019722;28;20037;-75
2021/08/17 06:34:19;;;;;;;23.15;5.45;;;;;;;14.15;100.00;100832.97;5003322;28;20030;-76
2021/08/17 06:36:44;;;;;;;18.35;4.40;;;;;;;14.35;100.00;100843.97;5035996;28;20102;-78
2021/08/17 06:39:10;;;;;;;24.70;4.65;;;;;;;14.53;100.00;100843.75;5005808;28;20511;-76
2021/08/17 06:41:36;;;;;;;17.58;4.13;;;;;;;14.54;100.00;100844.56;5006519;28;20036;-77
2021/08/17 06:44:03;;;;;;;17.40;3.80;;;;;;;14.49;100.00;100842.44;4998271;28;20041;-76
2021/08/17 06:46:29;;;;;;;16.15;3.60;;;;;;;14.41;100.00;100847.75;5021547;28;20029;-75
2021/08/17 06:48:55;;;;;;;10.93;3.40;;;;;;;14.34;100.00;100852.88;5011744;28;20037;-76
2021/08/17 06:51:20;;;;;;;11.93;3.28;;;;;;;14.24;100.00;100860.16;4998720;28;20091;-75
2021/08/17 06:53:46;;;;;;;12.88;3.13;;;;;;;14.19;100.00;100860.66;5011931;28;20033;-74
2021/08/17 06:56:12;;;;;;;11.63;3.40;;;;;;;14.20;100.00;100849.13;5010890;28;20033;-76
2021/08/17 06:58:38;;;;;;;11.57;2.80;;;;;;;14.13;100.00;100852.59;5023760;28;20034;-75
2021/08/17 07:01:03;;;;;;;6.60;2.30;;;;;;;14.09;100.00;100857.38;5033029;28;20128;-75
2021/08/17 07:03:29;;;;;;;9.48;2.22;;;;;;;14.02;100.00;100865.13;4996320;28;20033;-76
2021/08/17 07:05:55;;;;;;;5.85;1.63;;;;;;;14.09;100.00;100857.38;5027915;28;20434;-77
2021/08/17 07:08:21;;;;;;;5.22;1.63;;;;;;;14.25;100.00;100858.34;5011998;28;20483;-74
2021/08/17 07:10:47;;;;;;;3.47;1.58;;;;;;;14.25;100.00;100858.34;5003905;28;20026;-76
2021/08/17 07:13:13;;;;;;;6.00;1.60;;;;;;;14.34;100.00;100852.88;5011598;28;20037;-75
2021/08/17 07:15:39;;;;;;;6.75;1.55;;;;;;;14.22;100.00;100859.47;4998081;28;20124;-74
2021/08/17 07:18:05;;;;;;;8.45;2.00;;;;;;;14.21;100.00;100866.56;5035144;28;20494;-74
2021/08/17 07:20:30;;;;;;;5.68;2.05;;;;;;;14.14;100.00;100864.78;5034920;28;20033;-72
2021/08/17 07:22:56;;;;;;;8.77;2.10;;;;;;;14.07;100.00;100864.63;5002464;28;20052;-74
2021/08/17 07:25:21;;;;;;;5.05;2.00;;;;;;;14.02;100.00;100866.94;5019579;28;20040;-75
2021/08/17 07:27:47;;;;;;;6.53;2.13;;;;;;;14.01;100.00;100862.63;5015802;28;20048;-75
2021/08/17 07:30:13;;;;;;;3.97;1.52;;;;;;;14.13;100.00;100865.78;5015068;28;20175;-76
2021/08/17 07:32:44;;;;;;;4.45;1.60;;;;;;;14.31;100.00;100869.03;5028729;28;20701;-76
2021/08/17 07:35:12;;;;;;;4.80;1.35;;;;;;;14.44;100.00;100859.78;5025478;28;20025;-75
2021/08/17 07:37:40;;;;;;;5.43;1.55;;;;;;;14.49;100.00;100857.47;5024163;28;20046;-75
2021/08/17 07:40:06;;;;;;;3.80;1.35;;;;;;;14.47;100.00;100868.19;5025243;28;20037;-74
2021/08/17 07:42:33;;;;;;;7.80;1.73;;;;;;;14.23;100.00;100863.78;5030661;28;20072;-75
2021/08/17 07:44:59;;;;;;;7.20;1.52;;;;;;;14.19;100.00;100862.47;4995049;28;20065;-76
2021/08/17 07:47:25;;;;;;;4.60;1.60;;;;;;;14.17;100.00;100856.53;5028145;28;20779;-75
2021/08/17 07:49:50;;;;;;;5.90;1.95;;;;;;;14.26;100.00;100862.59;5026079;28;20443;-75
2021/08/17 07:52:16;;;;;;;9.38;2.30;;;;;;;14.44;100.00;100863.22;5017057;28;20068;-75
2021/08/17 07:54:41;;;;;;;5.80;2.17;;;;;;;14.57;100.00;100868.03;5026819;28;20808;-75
2021/08/17 07:57:07;;;;;;;9.15;2.40;;;;;;;14.55;100.00;100867.34;4999301;28;20044;-75
2021/08/17 07:59:33;;;;;;;8.68;2.20;;;;;;;14.64;100.00;100866.34;5009960;28;20036;-75
2021/08/17 08:01:58;;;;;;;5.68;2.20;;;;;;;14.63;100.00;100861.25;5027371;28;20128;-75
2021/08/17 08:04:24;;;;;;;7.18;2.00;;;;;;;14.54;100.00;100869.16;5011618;28;20029;-75
2021/08/17 08:06:50;;;;;;;9.15;2.08;;;;;;;14.52;100.00;100863.22;5036639;28;20464;-76
2021/08/17 08:09:15;;;;;;;7.03;2.35;;;;;;;14.55;100.00;100873.44;4997649;28;20120;-76
2021/08/17 08:11:41;;;;;;;10.82;2.50;;;;;;;14.58;100.00;100865.22;5016945;28;20040;-75
2021/08/17 08:14:06;;;;;;;7.78;2.40;;;;;;;14.72;100.00;100878.69;5029528;28;20033;-75
2021/08/17 08:16:32;;;;;;;8.95;2.60;;;;;;;14.83;100.00;100891.53;5025976;28;20040;-74
2021/08/17 08:18:57;;;;;;;7.78;2.38;;;;;;;14.82;100.00;100887.22;5007637;28;20044;-74
2021/08/17 08:21:23;;;;;;;6.85;2.53;;;;;;;14.79;100.00;100887.59;5003016;28;20042;-75
2021/08/17 08:23:48;;;;;;;10.63;2.53;;;;;;;14.58;100.00;100885.53;5016385;28;20719;-74
2021/08/17 08:26:14;;;;;;;9.88;2.40;;;;;;;14.34;100.00;100881.91;5028738;28;20556;-74
2021/08/17 08:28:39;;;;;;;4.97;2.40;;;;;;;14.18;100.00;100901.22;5000810;28;20033;-73
2021/08/17 08:31:05;;;;;;;10.70;2.80;;;;;;;14.10;100.00;100895.94;5000876;28;20407;-74
2021/08/17 08:33:31;;;;;;;9.38;2.17;;;;;;;14.04;100.00;100901.88;5011959;28;20037;-75
2021/08/17 08:35:56;;;;;;;5.82;2.60;;;;;;;13.98;100.00;100903.38;5026573;28;20124;-77
2021/08/17 08:38:22;;;;;;;7.38;2.60;;;;;;;13.93;100.00;100915.38;5025203;28;20140;-73
2021/08/17 08:40:50;;;;;;;14.38;3.10;;;;;;;13.90;100.00;100913.91;4998298;28;20037;-73
2021/08/17 08:43:20;;;;;;;10.98;3.08;;;;;;;13.88;100.00;100909.78;5037492;28;20222;-74
2021/08/17 08:45:47;;;;;;;6.72;3.10;;;;;;;13.86;100.00;100912.56;5034373;28;20038;-74
2021/08/17 08:48:20;;;;;;;10.57;3.08;;;;;;;13.90;100.00;100908.66;5007636;28;20030;-74
2021/08/17 08:50:46;;;;;;;12.45;3.92;;;;;;;13.96;100.00;100920.34;5021129;28;20698;-73
2021/08/17 08:53:13;;;;;;;10.75;3.58;;;;;;;13.98;100.00;100913.09;5041914;28;20044;-73
2021/08/17 08:55:39;;;;;;;11.80;3.60;;;;;;;13.89;100.00;100916.72;5025382;28;20060;-74
2021/08/17 08:58:05;;;;;;;11.68;4.00;;;;;;;14.04;100.00;100914.25;5033388;28;20533;-75
2021/08/17 09:00:31;;;;;;;17.48;4.38;;;;;;;14.05;100.00;100914.06;5025570;28;20073;-75
2021/08/17 09:02:56;;;;;;;19.10;4.60;;;;;;;14.07;100.00;100904.19;5020238;28;20068;-75
2021/08/17 09:05:22;;;;;;;17.13;4.22;;;;;;;13.93;100.00;100895.13;5026043;28;20029;-74
2021/08/17 09:07:50;;;;;;;20.25;4.50;;;;;;;13.95;100.00;100901.03;5015218;28;20383;-74
2021/08/17 09:10:16;;;;;;;19.10;4.63;;;;;;;14.06;100.00;100917.53;5007129;28;20502;-74
2021/08/17 09:12:54;;;;;;;18.30;4.32;;;;;;;14.06;100.00;100902.53;5025590;28;20037;-75
2021/08/17 09:15:20;;;;;;;20.08;4.72;;;;;;;14.13;100.00;100914.06;5024363;28;20113;-73
2021/08/17 09:18:04;;;;;;;19.48;4.78;;;;;;;14.32;100.00;100925.28;5031388;28;20042;-77
2021/08/17 09:20:42;;;;;;;21.90;4.75;;;;;;;14.46;100.00;100936.97;5020767;28;20064;-72
2021/08/17 09:23:34;;;;;;;12.93;3.72;;;;;;;14.35;100.00;100943.41;5012430;28;20059;-74
2021/08/17 09:26:02;;;;;;;18.30;4.03;;;;;;;14.30;100.00;100930.72;5028281;28;20040;-74
2021/08/17 09:28:30;;;;;;;11.50;3.35;;;;;;;14.23;100.00;100932.38;4996433;28;20533;-75
2021/08/17 09:30:56;;;;;;;11.45;3.08;;;;;;;14.16;100.00;100941.94;5025489;28;20049;-76
2021/08/17 09:33:21;;;;;;;16.67;3.28;;;;;;;14.08;100.00;100944.56;5030782;28;20040;-74
2021/08/17 09:35:54;;;;;;;9.00;3.45;;;;;;;14.18;100.00;100934.66;5039989;28;20041;-75
2021/08/17 09:38:19;;;;;;;14.75;3.17;;;;;;;14.25;100.00;100942.75;5011982;28;20047;-75
2021/08/17 09:40:45;;;;;;;14.65;4.05;;;;;;;14.31;100.00;100950.81;5014514;28;20154;-75
2021/08/17 09:43:19;;;;;;;14.80;3.40;;;;;;;14.32;100.00;100936.66;5013777;28;20080;-73
2021/08/17 09:45:47;;;;;;;14.38;3.92;;;;;;;14.21;100.00;100950.19;5041115;28;20033;-75
2021/08/17 09:48:14;;;;;;;13.27;3.30;;;;;;;14.14;100.00;100947.38;5005643;28;20037;-75
2021/08/17 09:50:42;;;;;;;18.23;3.95;;;;;;;14.09;100.00;100949.69;5031810;28;20406;-75
2021/08/17 09:53:20;;;;;;;15.95;3.65;;;;;;;13.97;100.00;100953.63;5011880;28;20115;-75
2021/08/17 09:55:53;;;;;;;12.50;3.30;;;;;;;13.91;100.00;100954.28;5014024;28;20021;-75
2021/08/17 09:58:34;;;;;;;14.93;3.97;;;;;;;13.70;100.00;100947.66;5018908;28;20040;-74
2021/08/17 10:01:02;;;;;;;20.15;3.83;;;;;;;13.89;100.00;100949.16;5035155;28;20087;-73
2021/08/17 10:03:29;;;;;;;22.48;4.60;;;;;;;14.09;100.00;100951.47;5025154;28;20029;-75
2021/08/17 10:05:55;;;;;;;15.05;4.50;;;;;;;14.40;100.00;100955.09;5020675;28;20040;-76
2021/08/17 10:08:23;;;;;;;16.23;3.88;;;;;;;14.58;100.00;100946.22;4998894;28;20034;-74
2021/08/17 10:10:51;;;;;;;14.43;3.42;;;;;;;14.77;100.00;100948.50;5014806;28;20127;-74
2021/08/17 10:13:19;;;;;;;13.82;4.15;;;;;;;14.83;100.00;100941.72;5033690;28;20037;-74
2021/08/17 10:15:46;;;;;;;18.35;3.10;;;;;;;14.82;100.00;100940.03;5011314;28;20034;-76
2021/08/17 10:18:17;;;;;;;13.98;3.08;;;;;;;14.87;100.00;100945.66;5027371;28;20438;-76
2021/08/17 10:20:46;;;;;;;8.68;2.40;;;;;;;14.87;100.00;100942.19;5028747;28;20045;-74
2021/08/17 10:23:20;;;;;;;7.78;2.33;;;;;;;14.97;100.00;100948.09;5016322;28;20029;-74
2021/08/17 10:25:50;;;;;;;11.23;2.80;;;;;;;14.94;100.00;100940.53;5010218;28;20045;-75
2021/08/17 10:28:27;;;;;;;11.02;2.90;;;;;;;15.05;100.00;100947.25;4995992;28;20048;-76
2021/08/17 10:30:54;;;;;;;11.93;2.90;;;;;;;14.91;100.00;100943.50;5018369;28;20083;-75
2021/08/17 10:33:36;;;;;;;10.80;2.80;;;;;;;14.81;100.00;100954.25;5010482;28;20041;-74
2021/08/17 10:36:02;;;;;;;16.80;3.35;;;;;;;14.72;100.00;100942.88;5025681;28;20037;-75
2021/08/17 10:38:30;;;;;;;13.77;3.10;;;;;;;14.63;100.00;100951.81;5015470;28;20072;-74
2021/08/17 10:40:56;;;;;;;12.60;3.47;;;;;;;14.57;100.00;100949.84;5028869;28;20088;-74
2021/08/17 10:43:27;;;;;;;15.45;3.80;;;;;;;14.64;100.00;100942.91;5011645;28;20533;-75
2021/08/17 10:46:00;;;;;;;20.90;4.25;;;;;;;15.10;100.00;100942.28;5012188;28;20094;-75
2021/08/17 10:48:50;;;;;;;19.50;3.92;;;;;;;15.49;100.00;100934.31;5017170;28;20856;-76
2021/08/17 10:51:19;;;;;;;16.17;3.38;;;;;;;15.69;100.00;100937.34;5023771;28;20037;-75
2021/08/17 10:53:45;;;;;;;14.93;3.47;;;;;;;15.76;100.00;100937.47;5021530;28;20470;-76
2021/08/17 10:56:14;;;;;;;15.32;3.53;;;;;;;16.03;100.00;100941.44;5014694;28;20033;-77
2021/08/17 10:58:42;;;;;;;15.75;3.67;;;;;;;16.10;100.00;100942.34;4992622;28;20853;-75
2021/08/17 11:01:07;;;;;;;14.50;3.15;;;;;;;16.14;100.00;100946.31;5011751;28;20103;-75
2021/08/17 11:03:37;;;;;;;14.98;4.20;;;;;;;16.08;100.00;100933.78;5006390;28;20032;-75
2021/08/17 11:06:05;;;;;;;16.65;3.17;;;;;;;15.94;100.00;100940.66;4996000;28;20130;-76
2021/08/17 11:08:30;;;;;;;15.05;3.00;;;;;;;15.80;100.00;100951.19;5023553;28;20040;-77